Time;durP1;ratioP1;P1;durP2;ratioP2;P2;SDS_P1;SDS_P2;PMS_P1;PMS_P2;Temp;Humidity;BMP_temperature;BMP_pressure;BME280_temperature;BME280_humidity;BME280_pressure;Samples;Min_cycle;Max_cycle;Signal;HPM_P1;HPM_P2
2021/12/02 00:00:00;;;;;;;;;;;;;;;;;;1009581;29;1074;-24
2021/12/02 00:00:31;;;;;;;;;;;;;;;;;;1008407;29;1093;-24
2021/12/02 00:01:03;;;;;;;;;;;;;;;;;;1009069;29;1039;-24
2021/12/02 00:01:35;;;;;;;;;;;;;;;;;;1008564;29;959;-25
2021/12/02 00:02:07;;;;;;;;;;;;;;;;;;1001801;29;1031;-24
2021/12/02 00:02:37;;;;;;;;;;;;;;;;;;1004928;29;950;-24
2021/12/02 00:03:08;;;;;;;;;;;;;;;;;;1004773;29;1254;-24
2021/12/02 00:03:39;;;;;;;;;;;;;;;;;;1005259;29;984;-24
2021/12/02 00:04:10;;;;;;;;;;;;;;;;;;1009661;29;1030;-23
2021/12/02 00:04:41;;;;;;;;;;;;;;;;;;1009216;29;1284;-24
2021/12/02 00:05:11;;;;;;;;;;;;;;;;;;1009524;29;995;-24
2021/12/02 00:05:42;;;;;;;;;;;;;;;;;;1009351;29;1267;-24
2021/12/02 00:06:14;;;;;;;;;;;;;;;;;;1008283;29;1089;-24
2021/12/02 00:06:44;;;;;;;;;;;;;;;;;;1008741;29;1105;-24
2021/12/02 00:07:15;;;;;;;;;;;;;;;;;;1004380;29;1372;-24
2021/12/02 00:07:45;;;;;;;;;;;;;;;;;;1005264;29;1198;-24
2021/12/02 00:08:16;;;;;;;;;;;;;;;;;;1008764;29;969;-24
2021/12/02 00:08:47;;;;;;;;;;;;;;;;;;1009000;29;913;-24
2021/12/02 00:09:18;;;;;;;;;;;;;;;;;;1008704;29;1014;-24
2021/12/02 00:09:48;;;;;;;;;;;;;;;;;;1008508;29;1619;-24
2021/12/02 00:10:19;;;;;;;;;;;;;;;;;;1004844;29;1075;-24
2021/12/02 00:10:49;;;;;;;;;;;;;;;;;;1004703;29;1424;-24
2021/12/02 00:11:20;;;;;;;;;;;;;;;;;;1004269;29;1499;-24
2021/12/02 00:11:50;;;;;;;;;;;;;;;;;;1004938;29;1302;-24
2021/12/02 00:12:22;;;;;;;;;;;;;;;;;;1004596;29;1465;-24
2021/12/02 00:12:54;;;;;;;;;;;;;;;;;;1008649;29;1054;-24
2021/12/02 00:13:27;;;;;;;;;;;;;;;;;;1005023;29;971;-24
2021/12/02 00:14:01;;;;;;;;;;;;;;;;;;1003932;29;1146;-24
2021/12/02 00:14:38;;;;;;;;;;;;;;;;;;1006029;29;1094;-25
2021/12/02 00:15:17;;;;;;;;;;;;;;;;;;1008537;29;1475;-24
2021/12/02 00:16:31;;;;;;;;;;;;;;;;;;1008924;29;1300;-23
2021/12/02 00:17:09;;;;;;;;;;;;;;;;;;1008669;29;977;-24
2021/12/02 00:17:41;;;;;;;;;;;;;;;;;;1008833;29;1014;-24
2021/12/02 00:21:06;;;;;;;;;;;;;;;;;;1017291;29;982;-24
2021/12/02 00:21:39;;;;;;;;;;;;;;;;;;1016996;29;962;-24
2021/12/02 00:22:11;;;;;;;;;;;;;;;;;;1012480;29;1274;-24
2021/12/02 00:23:04;;;;;;;;;;;;;;;;;;1004936;29;1171;-24
2021/12/02 00:23:35;;;;;;;;;;;;;;;;;;995017;29;1140;-24
2021/12/02 00:24:07;;;;;;;;;;;;;;;;;;1011077;29;973;-24
2021/12/02 00:24:39;;;;;;;;;;;;;;;;;;1016033;29;1030;-24
2021/12/02 00:25:10;;;;;;;;;;;;;;;;;;1017295;29;1201;-24
2021/12/02 00:25:40;;;;;;;;;;;;;;;;;;1017346;29;970;-24
2021/12/02 00:26:18;;;;;;;;;;;;;;;;;;1017203;29;1206;-24
2021/12/02 00:26:51;;;;;;;;;;;;;;;;;;1012204;29;1239;-24
2021/12/02 00:27:24;;;;;;;;;;;;;;;;;;1008463;29;1546;-25
2021/12/02 00:27:56;;;;;;;;;;;;;;;;;;1008872;29;1042;-24
2021/12/02 00:28:28;;;;;;;;;;;;;;;;;;1008305;29;1116;-24
2021/12/02 00:28:59;;;;;;;;;;;;;;;;;;1002351;29;1125;-23
2021/12/02 00:29:31;;;;;;;;;;;;;;;;;;998466;29;1051;-25
2021/12/02 00:30:02;;;;;;;;;;;;;;;;;;1005573;29;1155;-24
2021/12/02 00:30:33;;;;;;;;;;;;;;;;;;1005583;29;852;-24
2021/12/02 00:31:03;;;;;;;;;;;;;;;;;;1009922;29;1190;-24
2021/12/02 00:31:38;;;;;;;;;;;;;;;;;;1009399;29;1444;-25
2021/12/02 00:32:09;;;;;;;;;;;;;;;;;;1010208;29;1092;-24
2021/12/02 00:32:42;;;;;;;;;;;;;;;;;;1013176;29;1396;-24
2021/12/02 00:33:13;;;;;;;;;;;;;;;;;;1013434;29;1173;-24
2021/12/02 00:33:45;;;;;;;;;;;;;;;;;;1006083;29;1013;-24
2021/12/02 00:34:16;;;;;;;;;;;;;;;;;;1005430;29;968;-24
2021/12/02 00:34:46;;;;;;;;;;;;;;;;;;1002093;29;1656;-25
2021/12/02 00:35:17;;;;;;;;;;;;;;;;;;1001660;29;1105;-23
2021/12/02 00:35:47;;;;;;;;;;;;;;;;;;1006067;29;1063;-24
2021/12/02 00:36:18;;;;;;;;;;;;;;;;;;1005507;29;1059;-24
2021/12/02 00:36:49;;;;;;;;;;;;;;;;;;1010033;29;1382;-23
2021/12/02 00:37:21;;;;;;;;;;;;;;;;;;1009165;29;1142;-24
2021/12/02 00:37:52;;;;;;;;;;;;;;;;;;1005491;29;1397;-23
2021/12/02 00:38:23;;;;;;;;;;;;;;;;;;1005371;29;1186;-25
2021/12/02 00:38:54;;;;;;;;;;;;;;;;;;1006321;29;1081;-24
2021/12/02 00:39:25;;;;;;;;;;;;;;;;;;1009445;29;2004;-24
2021/12/02 00:39:55;;;;;;;;;;;;;;;;;;1010484;29;1018;-24
2021/12/02 00:40:26;;;;;;;;;;;;;;;;;;1010217;29;1022;-24
2021/12/02 00:40:56;;;;;;;;;;;;;;;;;;1010306;29;939;-24
2021/12/02 00:41:28;;;;;;;;;;;;;;;;;;1009669;29;1056;-24
2021/12/02 00:41:59;;;;;;;;;;;;;;;;;;1005560;29;1384;-24
2021/12/02 00:42:30;;;;;;;;;;;;;;;;;;1005668;29;1008;-24
2021/12/02 00:43:01;;;;;;;;;;;;;;;;;;1001546;29;1182;-24
2021/12/02 00:43:33;;;;;;;;;;;;;;;;;;1001761;29;1382;-24
2021/12/02 00:44:05;;;;;;;;;;;;;;;;;;994114;29;1051;-24
2021/12/02 00:44:37;;;;;;;;;;;;;;;;;;986944;29;1480;-23
2021/12/02 00:45:08;;;;;;;;;;;;;;;;;;993862;29;1037;-24
2021/12/02 00:45:39;;;;;;;;;;;;;;;;;;994522;29;1093;-24
2021/12/02 00:46:12;;;;;;;;;;;;;;;;;;997693;29;1139;-25
2021/12/02 00:46:46;;;;;;;;;;;;;;;;;;998496;29;964;-24
2021/12/02 00:47:16;;;;;;;;;;;;;;;;;;998033;29;1781;-24
2021/12/02 00:47:48;;;;;;;;;;;;;;;;;;998449;29;1064;-24
2021/12/02 00:48:18;;;;;;;;;;;;;;;;;;998791;29;1280;-24
2021/12/02 00:48:49;;;;;;;;;;;;;;;;;;1001549;29;1286;-24
2021/12/02 00:49:20;;;;;;;;;;;;;;;;;;1005690;29;1158;-24
2021/12/02 00:49:51;;;;;;;;;;;;;;;;;;1002084;29;904;-24
2021/12/02 00:50:21;;;;;;;;;;;;;;;;;;1009669;29;958;-24
2021/12/02 00:50:52;;;;;;;;;;;;;;;;;;1009660;29;1294;-24
2021/12/02 00:51:26;;;;;;;;;;;;;;;;;;1009318;29;1296;-25
2021/12/02 00:51:58;;;;;;;;;;;;;;;;;;1013534;29;1082;-24
2021/12/02 00:52:29;;;;;;;;;;;;;;;;;;1013648;29;1012;-24
2021/12/02 00:53:00;;;;;;;;;;;;;;;;;;1009685;29;1014;-24
2021/12/02 00:53:31;;;;;;;;;;;;;;;;;;1005180;29;1044;-24
2021/12/02 00:54:06;;;;;;;;;;;;;;;;;;1002150;29;860;-24
2021/12/02 00:54:39;;;;;;;;;;;;;;;;;;1003057;29;990;-24
2021/12/02 00:55:09;;;;;;;;;;;;;;;;;;1006560;29;1450;-23
2021/12/02 00:55:41;;;;;;;;;;;;;;;;;;1009101;29;1097;-24
2021/12/02 00:56:13;;;;;;;;;;;;;;;;;;1009607;29;971;-25
2021/12/02 00:56:44;;;;;;;;;;;;;;;;;;1005670;29;1419;-22
2021/12/02 00:57:14;;;;;;;;;;;;;;;;;;1001908;29;1008;-24
2021/12/02 00:57:45;;;;;;;;;;;;;;;;;;1001751;29;997;-24
2021/12/02 00:58:20;;;;;;;;;;;;;;;;;;1001748;29;1107;-24
2021/12/02 00:58:51;;;;;;;;;;;;;;;;;;1002583;29;919;-24
2021/12/02 00:59:23;;;;;;;;;;;;;;;;;;1005398;29;2006;-24
2021/12/02 00:59:53;;;;;;;;;;;;;;;;;;1005743;29;983;-24
2021/12/02 01:00:23;;;;;;;;;;;;;;;;;;1005587;29;935;-24
2021/12/02 01:00:55;;;;;;;;;;;;;;;;;;1004888;29;1502;-24
2021/12/02 01:01:27;;;;;;;;;;;;;;;;;;1001784;29;1104;-24
2021/12/02 01:01:57;;;;;;;;;;;;;;;;;;997489;29;1284;-24
2021/12/02 01:02:27;;;;;;;;;;;;;;;;;;998547;29;1355;-24
2021/12/02 01:02:59;;;;;;;;;;;;;;;;;;1001654;29;1016;-24
2021/12/02 01:03:35;;;;;;;;;;;;;;;;;;1001823;29;987;-24
2021/12/02 01:04:13;;;;;;;;;;;;;;;;;;997992;29;977;-24
2021/12/02 01:04:43;;;;;;;;;;;;;;;;;;1001423;29;1425;-24
2021/12/02 01:05:14;;;;;;;;;;;;;;;;;;997964;29;1292;-24
2021/12/02 01:05:44;;;;;;;;;;;;;;;;;;999757;29;1005;-24
2021/12/02 01:06:15;;;;;;;;;;;;;;;;;;1001733;29;946;-24
2021/12/02 01:06:45;;;;;;;;;;;;;;;;;;1006113;29;1158;-23
2021/12/02 01:07:16;;;;;;;;;;;;;;;;;;1010258;29;891;-24
2021/12/02 01:07:46;;;;;;;;;;;;;;;;;;1010280;29;990;-24
2021/12/02 01:08:18;;;;;;;;;;;;;;;;;;1010313;29;804;-24
2021/12/02 01:08:49;;;;;;;;;;;;;;;;;;1009466;29;1078;-24
2021/12/02 01:09:19;;;;;;;;;;;;;;;;;;1005712;29;956;-24
2021/12/02 01:09:50;;;;;;;;;;;;;;;;;;1005467;29;1016;-24
2021/12/02 01:10:21;;;;;;;;;;;;;;;;;;1005878;29;970;-24
2021/12/02 01:10:51;;;;;;;;;;;;;;;;;;1001729;29;1051;-25
2021/12/02 01:11:22;;;;;;;;;;;;;;;;;;1005643;29;995;-24
2021/12/02 01:11:55;;;;;;;;;;;;;;;;;;1001509;29;1197;-24
2021/12/02 01:12:25;;;;;;;;;;;;;;;;;;1002388;29;1400;-25
2021/12/02 01:12:56;;;;;;;;;;;;;;;;;;1000861;29;1242;-24
2021/12/02 01:13:27;;;;;;;;;;;;;;;;;;1002110;29;1088;-24
2021/12/02 01:13:57;;;;;;;;;;;;;;;;;;1001435;29;1089;-24
2021/12/02 01:14:28;;;;;;;;;;;;;;;;;;1005962;29;954;-24
2021/12/02 01:14:58;;;;;;;;;;;;;;;;;;1005535;29;955;-23
2021/12/02 01:15:29;;;;;;;;;;;;;;;;;;1005661;29;940;-24
2021/12/02 01:15:59;;;;;;;;;;;;;;;;;;1005817;29;1003;-24
2021/12/02 01:16:31;;;;;;;;;;;;;;;;;;1005456;29;1357;-24
2021/12/02 01:17:01;;;;;;;;;;;;;;;;;;1009519;29;1226;-24
2021/12/02 01:17:32;;;;;;;;;;;;;;;;;;1009432;29;1066;-24
2021/12/02 01:18:03;;;;;;;;;;;;;;;;;;1001473;29;1406;-23
2021/12/02 01:18:33;;;;;;;;;;;;;;;;;;1001297;29;1129;-24
2021/12/02 01:19:04;;;;;;;;;;;;;;;;;;1005926;29;1054;-24
2021/12/02 01:19:34;;;;;;;;;;;;;;;;;;1004856;29;1903;-24
2021/12/02 01:20:05;;;;;;;;;;;;;;;;;;1012973;29;1104;-24
2021/12/02 01:20:38;;;;;;;;;;;;;;;;;;1017336;29;1297;-23
2021/12/02 01:21:13;;;;;;;;;;;;;;;;;;1017179;29;1098;-24
2021/12/02 01:21:43;;;;;;;;;;;;;;;;;;1017477;29;1071;-24
2021/12/02 01:22:14;;;;;;;;;;;;;;;;;;1017211;29;1160;-24
2021/12/02 01:22:47;;;;;;;;;;;;;;;;;;1017553;29;1006;-24
2021/12/02 01:23:19;;;;;;;;;;;;;;;;;;1016384;29;1442;-24
2021/12/02 01:23:51;;;;;;;;;;;;;;;;;;1017165;29;1056;-25
2021/12/02 01:24:22;;;;;;;;;;;;;;;;;;1009381;29;1241;-24
2021/12/02 01:24:54;;;;;;;;;;;;;;;;;;1009003;29;1573;-24
2021/12/02 01:25:24;;;;;;;;;;;;;;;;;;1005399;29;1472;-24
2021/12/02 01:25:58;;;;;;;;;;;;;;;;;;1005665;29;1584;-24
2021/12/02 01:26:30;;;;;;;;;;;;;;;;;;1013126;29;1097;-24
2021/12/02 01:27:01;;;;;;;;;;;;;;;;;;1014296;29;1166;-24
2021/12/02 01:27:34;;;;;;;;;;;;;;;;;;1017435;29;1201;-24
2021/12/02 01:28:05;;;;;;;;;;;;;;;;;;1018039;29;1206;-25
2021/12/02 01:28:36;;;;;;;;;;;;;;;;;;1017909;29;982;-24
2021/12/02 01:29:07;;;;;;;;;;;;;;;;;;1017552;29;1281;-24
2021/12/02 01:29:39;;;;;;;;;;;;;;;;;;1017875;29;959;-24
2021/12/02 01:30:10;;;;;;;;;;;;;;;;;;1012716;29;1512;-23
2021/12/02 01:30:40;;;;;;;;;;;;;;;;;;1013859;29;987;-24
2021/12/02 01:31:11;;;;;;;;;;;;;;;;;;1016933;29;1488;-24
2021/12/02 01:31:42;;;;;;;;;;;;;;;;;;1017313;29;1096;-24
2021/12/02 01:32:13;;;;;;;;;;;;;;;;;;1013161;29;1184;-24
2021/12/02 01:32:44;;;;;;;;;;;;;;;;;;1013203;29;1481;-23
2021/12/02 01:33:18;;;;;;;;;;;;;;;;;;1013127;29;1244;-24
2021/12/02 01:33:50;;;;;;;;;;;;;;;;;;1016229;29;1376;-24
2021/12/02 01:34:21;;;;;;;;;;;;;;;;;;1009424;29;1138;-24
2021/12/02 01:34:52;;;;;;;;;;;;;;;;;;1008636;29;902;-24
2021/12/02 01:35:24;;;;;;;;;;;;;;;;;;1006247;29;1534;-24
2021/12/02 01:35:56;;;;;;;;;;;;;;;;;;1013608;29;966;-24
2021/12/02 01:36:31;;;;;;;;;;;;;;;;;;1017963;29;1025;-24
2021/12/02 01:37:02;;;;;;;;;;;;;;;;;;1018067;29;949;-24
2021/12/02 01:37:34;;;;;;;;;;;;;;;;;;1009155;29;1004;-24
2021/12/02 01:38:04;;;;;;;;;;;;;;;;;;1005029;29;1646;-23
2021/12/02 01:38:35;;;;;;;;;;;;;;;;;;997814;29;1064;-24
2021/12/02 01:39:06;;;;;;;;;;;;;;;;;;997628;29;1220;-24
2021/12/02 01:39:37;;;;;;;;;;;;;;;;;;997678;29;1915;-24
2021/12/02 01:40:07;;;;;;;;;;;;;;;;;;1001889;29;1161;-24
2021/12/02 01:40:38;;;;;;;;;;;;;;;;;;1017184;29;1017;-24
2021/12/02 01:41:08;;;;;;;;;;;;;;;;;;1017239;29;915;-24
2021/12/02 01:41:52;;;;;;;;;;;;;;;;;;1017321;29;1135;-24
2021/12/02 01:42:24;;;;;;;;;;;;;;;;;;1005504;29;965;-24
2021/12/02 01:42:56;;;;;;;;;;;;;;;;;;1001333;29;953;-24
2021/12/02 01:43:41;;;;;;;;;;;;;;;;;;1001551;29;1102;-24
2021/12/02 01:44:13;;;;;;;;;;;;;;;;;;1005978;29;1416;-24
2021/12/02 01:44:43;;;;;;;;;;;;;;;;;;1013626;29;1407;-24
2021/12/02 01:45:14;;;;;;;;;;;;;;;;;;1018018;29;1390;-24
2021/12/02 01:45:45;;;;;;;;;;;;;;;;;;1017804;29;1651;-21
2021/12/02 01:46:25;;;;;;;;;;;;;;;;;;1017277;29;2081;-24
2021/12/02 01:46:58;;;;;;;;;;;;;;;;;;1013523;29;1024;-24
2021/12/02 01:47:32;;;;;;;;;;;;;;;;;;1007978;29;1318;-23
2021/12/02 01:48:02;;;;;;;;;;;;;;;;;;1009465;29;1091;-24
2021/12/02 01:48:35;;;;;;;;;;;;;;;;;;1008218;29;1310;-24
2021/12/02 01:49:08;;;;;;;;;;;;;;;;;;1009778;29;1123;-24
2021/12/02 01:49:40;;;;;;;;;;;;;;;;;;1009401;29;1241;-24
2021/12/02 01:50:14;;;;;;;;;;;;;;;;;;1004895;29;1286;-24
2021/12/02 01:50:57;;;;;;;;;;;;;;;;;;1006728;29;1145;-24
2021/12/02 01:51:29;;;;;;;;;;;;;;;;;;1013543;29;1432;-24
2021/12/02 01:52:00;;;;;;;;;;;;;;;;;;1017731;29;1184;-24
2021/12/02 01:52:32;;;;;;;;;;;;;;;;;;1017402;29;1395;-23
2021/12/02 01:53:04;;;;;;;;;;;;;;;;;;1012913;29;1099;-24
2021/12/02 01:53:36;;;;;;;;;;;;;;;;;;1005356;29;1039;-24
2021/12/02 01:54:08;;;;;;;;;;;;;;;;;;997193;29;1516;-24
2021/12/02 01:54:43;;;;;;;;;;;;;;;;;;998548;29;1340;-24
2021/12/02 01:55:15;;;;;;;;;;;;;;;;;;999368;29;1101;-23
2021/12/02 01:55:53;;;;;;;;;;;;;;;;;;1007249;29;1122;-24
2021/12/02 01:56:27;;;;;;;;;;;;;;;;;;1013143;29;1054;-24
2021/12/02 01:57:07;;;;;;;;;;;;;;;;;;1014728;29;1420;-24
2021/12/02 01:57:42;;;;;;;;;;;;;;;;;;1017989;29;1215;-24
2021/12/02 01:58:15;;;;;;;;;;;;;;;;;;1017374;29;1128;-24
2021/12/02 01:58:48;;;;;;;;;;;;;;;;;;1017218;29;1169;-24
2021/12/02 01:59:33;;;;;;;;;;;;;;;;;;1009240;29;1910;-23
2021/12/02 02:00:09;;;;;;;;;;;;;;;;;;1008965;29;1181;-24
2021/12/02 02:00:44;;;;;;;;;;;;;;;;;;1012667;29;1497;-24
2021/12/02 02:01:22;;;;;;;;;;;;;;;;;;1011527;29;1087;-24
2021/12/02 02:01:57;;;;;;;;;;;;;;;;;;1009185;29;1012;-24
2021/12/02 02:02:30;;;;;;;;;;;;;;;;;;997393;29;1371;-24
2021/12/02 02:03:03;;;;;;;;;;;;;;;;;;995808;29;1355;-24
2021/12/02 02:03:34;;;;;;;;;;;;;;;;;;993393;29;1490;-23
2021/12/02 02:04:05;;;;;;;;;;;;;;;;;;996576;29;1037;-24
2021/12/02 02:04:36;;;;;;;;;;;;;;;;;;1005913;29;984;-24
2021/12/02 02:05:12;;;;;;;;;;;;;;;;;;1001566;29;1225;-24
2021/12/02 02:05:43;;;;;;;;;;;;;;;;;;1008857;29;1390;-24
2021/12/02 02:06:14;;;;;;;;;;;;;;;;;;1009428;29;1408;-24
2021/12/02 02:06:52;;;;;;;;;;;;;;;;;;1013639;29;1267;-24
2021/12/02 02:07:22;;;;;;;;;;;;;;;;;;1017415;29;1154;-24
2021/12/02 02:08:11;;;;;;;;;;;;;;;;;;1016945;29;1145;-24
2021/12/02 02:08:43;;;;;;;;;;;;;;;;;;1007214;29;1126;-24
2021/12/02 02:09:14;;;;;;;;;;;;;;;;;;1009092;29;960;-24
2021/12/02 02:09:45;;;;;;;;;;;;;;;;;;1009414;29;1213;-24
2021/12/02 02:10:16;;;;;;;;;;;;;;;;;;1005671;29;1072;-24
2021/12/02 02:10:47;;;;;;;;;;;;;;;;;;1005253;29;1197;-24
2021/12/02 02:11:17;;;;;;;;;;;;;;;;;;1009382;29;915;-24
2021/12/02 02:11:48;;;;;;;;;;;;;;;;;;1005291;29;1395;-24
2021/12/02 02:12:21;;;;;;;;;;;;;;;;;;1013188;29;1018;-24
2021/12/02 02:12:53;;;;;;;;;;;;;;;;;;1012949;29;1380;-24
2021/12/02 02:13:24;;;;;;;;;;;;;;;;;;1013646;29;1160;-24
2021/12/02 02:13:55;;;;;;;;;;;;;;;;;;1010105;29;951;-24
2021/12/02 02:14:26;;;;;;;;;;;;;;;;;;1012557;29;1342;-24
2021/12/02 02:14:57;;;;;;;;;;;;;;;;;;1013608;29;1121;-24
2021/12/02 02:15:28;;;;;;;;;;;;;;;;;;1009313;29;1003;-24
2021/12/02 02:15:58;;;;;;;;;;;;;;;;;;1013418;29;960;-24
2021/12/02 02:16:29;;;;;;;;;;;;;;;;;;1012914;29;1290;-24
2021/12/02 02:17:04;;;;;;;;;;;;;;;;;;1012860;29;1704;-24
2021/12/02 02:17:44;;;;;;;;;;;;;;;;;;1013922;29;1129;-24
2021/12/02 02:18:20;;;;;;;;;;;;;;;;;;1016824;29;1062;-24
2021/12/02 02:18:50;;;;;;;;;;;;;;;;;;1017347;29;1002;-24
2021/12/02 02:19:21;;;;;;;;;;;;;;;;;;1016790;29;1907;-24
2021/12/02 02:19:52;;;;;;;;;;;;;;;;;;1017360;29;1053;-24
2021/12/02 02:20:24;;;;;;;;;;;;;;;;;;1009055;29;1260;-24
2021/12/02 02:21:32;;;;;;;;;;;;;;;;;;1005528;29;960;-24
2021/12/02 02:22:03;;;;;;;;;;;;;;;;;;1007471;29;898;-24
2021/12/02 02:22:33;;;;;;;;;;;;;;;;;;1016194;29;1803;-24
2021/12/02 02:23:06;;;;;;;;;;;;;;;;;;1016950;29;1055;-24
2021/12/02 02:23:41;;;;;;;;;;;;;;;;;;1013062;29;1079;-24
2021/12/02 02:24:14;;;;;;;;;;;;;;;;;;1009118;29;994;-24
2021/12/02 02:24:45;;;;;;;;;;;;;;;;;;1009373;29;1042;-24
2021/12/02 02:25:18;;;;;;;;;;;;;;;;;;1009609;29;1363;-24
2021/12/02 02:25:49;;;;;;;;;;;;;;;;;;1002013;29;1136;-24
2021/12/02 02:26:24;;;;;;;;;;;;;;;;;;997036;29;1675;-23
2021/12/02 02:26:55;;;;;;;;;;;;;;;;;;997345;29;1223;-24
2021/12/02 02:27:26;;;;;;;;;;;;;;;;;;995509;29;1135;-24
2021/12/02 02:27:57;;;;;;;;;;;;;;;;;;1004875;29;1087;-24
2021/12/02 02:28:28;;;;;;;;;;;;;;;;;;997620;29;1373;-24
2021/12/02 02:28:58;;;;;;;;;;;;;;;;;;997599;29;1558;-23
2021/12/02 02:29:29;;;;;;;;;;;;;;;;;;997727;29;1079;-24
2021/12/02 02:29:59;;;;;;;;;;;;;;;;;;1001766;29;1114;-24
2021/12/02 02:30:30;;;;;;;;;;;;;;;;;;1013872;29;880;-24
2021/12/02 02:31:00;;;;;;;;;;;;;;;;;;1013327;29;1014;-24
2021/12/02 02:31:31;;;;;;;;;;;;;;;;;;1013372;29;1090;-24
2021/12/02 02:32:03;;;;;;;;;;;;;;;;;;1013586;29;1068;-24
2021/12/02 02:32:33;;;;;;;;;;;;;;;;;;1009021;29;1012;-24
2021/12/02 02:33:04;;;;;;;;;;;;;;;;;;1009351;29;1505;-24
2021/12/02 02:33:39;;;;;;;;;;;;;;;;;;1001052;29;1222;-24
2021/12/02 02:34:09;;;;;;;;;;;;;;;;;;1002863;29;1307;-24
2021/12/02 02:34:39;;;;;;;;;;;;;;;;;;1009064;29;1114;-24
2021/12/02 02:35:10;;;;;;;;;;;;;;;;;;1010042;29;910;-24
2021/12/02 02:35:42;;;;;;;;;;;;;;;;;;1016796;29;1366;-24
2021/12/02 02:36:13;;;;;;;;;;;;;;;;;;1008992;29;1243;-24
2021/12/02 02:36:51;;;;;;;;;;;;;;;;;;1008906;29;1345;-25
2021/12/02 02:37:22;;;;;;;;;;;;;;;;;;999509;29;1201;-24
2021/12/02 02:37:53;;;;;;;;;;;;;;;;;;1000086;29;1168;-24
2021/12/02 02:38:24;;;;;;;;;;;;;;;;;;1005221;29;1019;-24
2021/12/02 02:38:59;;;;;;;;;;;;;;;;;;1002418;29;1002;-24
2021/12/02 02:39:32;;;;;;;;;;;;;;;;;;1008681;29;1984;-24
2021/12/02 02:40:06;;;;;;;;;;;;;;;;;;1008706;29;1152;-24
2021/12/02 02:40:40;;;;;;;;;;;;;;;;;;1006078;29;1109;-24
2021/12/02 02:41:11;;;;;;;;;;;;;;;;;;999555;29;1320;-23
2021/12/02 02:41:45;;;;;;;;;;;;;;;;;;1005805;29;1368;-22
2021/12/02 02:42:22;;;;;;;;;;;;;;;;;;1000951;29;1214;-24
2021/12/02 02:43:08;;;;;;;;;;;;;;;;;;1002859;29;1151;-24
2021/12/02 02:43:39;;;;;;;;;;;;;;;;;;1005521;29;1005;-24
2021/12/02 02:44:12;;;;;;;;;;;;;;;;;;1008841;29;824;-24
2021/12/02 02:44:42;;;;;;;;;;;;;;;;;;1007919;29;966;-24
2021/12/02 02:45:13;;;;;;;;;;;;;;;;;;1008637;29;1257;-24
2021/12/02 02:45:44;;;;;;;;;;;;;;;;;;1009355;29;1075;-24
2021/12/02 02:46:21;;;;;;;;;;;;;;;;;;1001162;29;1305;-23
2021/12/02 02:46:51;;;;;;;;;;;;;;;;;;1009461;29;1122;-24
2021/12/02 02:47:25;;;;;;;;;;;;;;;;;;1008886;29;1189;-24
2021/12/02 02:47:56;;;;;;;;;;;;;;;;;;1010711;29;1094;-24
2021/12/02 02:48:28;;;;;;;;;;;;;;;;;;1017074;29;1098;-24
2021/12/02 02:48:59;;;;;;;;;;;;;;;;;;1016563;29;1375;-24
2021/12/02 02:49:30;;;;;;;;;;;;;;;;;;1016941;29;1104;-24
2021/12/02 02:50:00;;;;;;;;;;;;;;;;;;1016813;29;1135;-24
2021/12/02 02:50:32;;;;;;;;;;;;;;;;;;1008428;29;1594;-24
2021/12/02 02:51:02;;;;;;;;;;;;;;;;;;1009139;29;1050;-24
2021/12/02 02:51:34;;;;;;;;;;;;;;;;;;1001338;29;1004;-24
2021/12/02 02:52:04;;;;;;;;;;;;;;;;;;1001656;29;1057;-24
2021/12/02 02:52:35;;;;;;;;;;;;;;;;;;1005266;29;1012;-24
2021/12/02 02:53:16;;;;;;;;;;;;;;;;;;1002062;29;1086;-24
2021/12/02 02:53:51;;;;;;;;;;;;;;;;;;1012435;29;878;-24
2021/12/02 02:54:23;;;;;;;;;;;;;;;;;;1009034;29;1113;-24
2021/12/02 02:54:54;;;;;;;;;;;;;;;;;;1007070;29;1355;-24
2021/12/02 02:55:25;;;;;;;;;;;;;;;;;;1001133;29;1258;-24
2021/12/02 02:56:07;;;;;;;;;;;;;;;;;;1001814;29;1279;-24
2021/12/02 02:56:50;;;;;;;;;;;;;;;;;;1006835;29;1127;-24
2021/12/02 02:57:24;;;;;;;;;;;;;;;;;;1012407;29;1003;-24
2021/12/02 02:58:15;;;;;;;;;;;;;;;;;;1005138;29;1263;-24
2021/12/02 02:59:36;;;;;;;;;;;;;;;;;;1009185;29;1927;-24
2021/12/02 03:00:13;;;;;;;;;;;;;;;;;;1013766;29;1341;-24
2021/12/02 03:00:55;;;;;;;;;;;;;;;;;;1013367;29;1169;-24
2021/12/02 03:02:27;;;;;;;;;;;;;;;;;;1013971;29;812;-24
2021/12/02 03:04:04;;;;;;;;;;;;;;;;;;1017127;29;957;-24
2021/12/02 03:05:20;;;;;;;;;;;;;;;;;;1013088;29;966;-24
2021/12/02 03:06:32;;;;;;;;;;;;;;;;;;1012712;29;994;-24
2021/12/02 03:08:12;;;;;;;;;;;;;;;;;;1004028;29;1152;-24
2021/12/02 03:08:51;;;;;;;;;;;;;;;;;;997732;29;980;-24
2021/12/02 03:09:38;;;;;;;;;;;;;;;;;;997519;29;1556;-24
2021/12/02 03:10:51;;;;;;;;;;;;;;;;;;1013223;29;1411;-24
2021/12/02 03:11:22;;;;;;;;;;;;;;;;;;1013615;29;970;-24
2021/12/02 03:11:57;;;;;;;;;;;;;;;;;;1013799;29;1082;-24
2021/12/02 03:13:35;;;;;;;;;;;;;;;;;;1008777;29;1166;-23
2021/12/02 03:14:11;;;;;;;;;;;;;;;;;;1005790;29;1125;-24
2021/12/02 03:16:44;;;;;;;;;;;;;;;;;;1012424;29;923;-24
2021/12/02 03:17:15;;;;;;;;;;;;;;;;;;1008610;29;1315;-24
2021/12/02 03:17:46;;;;;;;;;;;;;;;;;;1008661;29;1094;-24
2021/12/02 03:18:16;;;;;;;;;;;;;;;;;;1009344;29;1208;-24
2021/12/02 03:18:46;;;;;;;;;;;;;;;;;;1008711;29;1051;-24
2021/12/02 03:19:24;;;;;;;;;;;;;;;;;;1013886;29;1915;-24
2021/12/02 03:19:55;;;;;;;;;;;;;;;;;;1013541;29;1005;-24
2021/12/02 03:20:26;;;;;;;;;;;;;;;;;;1013698;29;819;-24
2021/12/02 03:20:56;;;;;;;;;;;;;;;;;;1012373;29;1084;-24
2021/12/02 03:21:28;;;;;;;;;;;;;;;;;;1012778;29;1007;-24
2021/12/02 03:21:58;;;;;;;;;;;;;;;;;;1012733;29;1107;-24
2021/12/02 03:22:29;;;;;;;;;;;;;;;;;;1013026;29;995;-24
2021/12/02 03:22:59;;;;;;;;;;;;;;;;;;1017201;29;1341;-24
2021/12/02 03:23:30;;;;;;;;;;;;;;;;;;1017041;29;1243;-24
2021/12/02 03:24:02;;;;;;;;;;;;;;;;;;1017578;29;919;-24
2021/12/02 03:24:33;;;;;;;;;;;;;;;;;;1015993;29;1262;-24
2021/12/02 03:25:04;;;;;;;;;;;;;;;;;;1012684;29;1093;-24
2021/12/02 03:25:34;;;;;;;;;;;;;;;;;;1012791;29;991;-24
2021/12/02 03:26:05;;;;;;;;;;;;;;;;;;1008866;29;1019;-24
2021/12/02 03:26:36;;;;;;;;;;;;;;;;;;1009237;29;1071;-25
2021/12/02 03:27:07;;;;;;;;;;;;;;;;;;1012079;29;1644;-24
2021/12/02 03:27:38;;;;;;;;;;;;;;;;;;1012660;29;1175;-24
2021/12/02 03:28:08;;;;;;;;;;;;;;;;;;1012949;29;1317;-21
2021/12/02 03:28:38;;;;;;;;;;;;;;;;;;1008126;29;1415;-24
2021/12/02 03:29:09;;;;;;;;;;;;;;;;;;1001016;29;1344;-24
2021/12/02 03:29:41;;;;;;;;;;;;;;;;;;1008523;29;1496;-24
2021/12/02 03:30:11;;;;;;;;;;;;;;;;;;1009275;29;1004;-24
2021/12/02 03:30:42;;;;;;;;;;;;;;;;;;1012833;29;1121;-24
2021/12/02 03:31:13;;;;;;;;;;;;;;;;;;1012563;29;2217;-24
2021/12/02 03:31:44;;;;;;;;;;;;;;;;;;1013059;29;1080;-24
2021/12/02 03:32:15;;;;;;;;;;;;;;;;;;1008374;29;1462;-24
2021/12/02 03:32:45;;;;;;;;;;;;;;;;;;1009220;29;1075;-24
2021/12/02 03:33:15;;;;;;;;;;;;;;;;;;1004832;29;1023;-24
2021/12/02 03:33:46;;;;;;;;;;;;;;;;;;1008957;29;1340;-24
2021/12/02 03:34:17;;;;;;;;;;;;;;;;;;1012698;29;1201;-23
2021/12/02 03:34:48;;;;;;;;;;;;;;;;;;1008985;29;1391;-24
2021/12/02 03:35:19;;;;;;;;;;;;;;;;;;1000500;29;1554;-24
2021/12/02 03:35:50;;;;;;;;;;;;;;;;;;997592;29;964;-24
2021/12/02 03:36:20;;;;;;;;;;;;;;;;;;997145;29;1028;-25
2021/12/02 03:36:51;;;;;;;;;;;;;;;;;;993922;29;1072;-24
2021/12/02 03:37:22;;;;;;;;;;;;;;;;;;1008989;29;983;-24
2021/12/02 03:37:52;;;;;;;;;;;;;;;;;;1008637;29;1406;-24
2021/12/02 03:38:22;;;;;;;;;;;;;;;;;;1016858;29;1050;-24
2021/12/02 03:38:53;;;;;;;;;;;;;;;;;;1017152;29;1543;-24
2021/12/02 03:39:25;;;;;;;;;;;;;;;;;;1017237;29;1987;-24
2021/12/02 03:39:56;;;;;;;;;;;;;;;;;;1016662;29;1224;-24
2021/12/02 03:40:27;;;;;;;;;;;;;;;;;;1007983;29;1460;-23
2021/12/02 03:40:57;;;;;;;;;;;;;;;;;;1008967;29;1145;-24
2021/12/02 03:41:27;;;;;;;;;;;;;;;;;;1009189;29;1042;-23
2021/12/02 03:41:58;;;;;;;;;;;;;;;;;;1012509;29;1013;-25
2021/12/02 03:42:29;;;;;;;;;;;;;;;;;;1012896;29;1258;-24
2021/12/02 03:42:59;;;;;;;;;;;;;;;;;;1012858;29;1084;-24
2021/12/02 03:43:33;;;;;;;;;;;;;;;;;;1012987;29;973;-24
2021/12/02 03:44:03;;;;;;;;;;;;;;;;;;1013141;29;1138;-24
2021/12/02 03:44:34;;;;;;;;;;;;;;;;;;1017184;29;1167;-24
2021/12/02 03:45:05;;;;;;;;;;;;;;;;;;1017286;29;990;-24
2021/12/02 03:45:37;;;;;;;;;;;;;;;;;;1017623;29;1119;-24
2021/12/02 03:46:09;;;;;;;;;;;;;;;;;;1016669;29;1019;-24
2021/12/02 03:46:41;;;;;;;;;;;;;;;;;;1012823;29;1000;-24
2021/12/02 03:47:12;;;;;;;;;;;;;;;;;;1012665;29;1772;-24
2021/12/02 03:47:42;;;;;;;;;;;;;;;;;;1012608;29;1110;-24
2021/12/02 03:48:13;;;;;;;;;;;;;;;;;;1013384;29;1023;-24
2021/12/02 03:48:43;;;;;;;;;;;;;;;;;;1017216;29;910;-24
2021/12/02 03:49:14;;;;;;;;;;;;;;;;;;1017782;29;939;-24
2021/12/02 03:49:44;;;;;;;;;;;;;;;;;;1015811;29;1412;-24
2021/12/02 03:50:15;;;;;;;;;;;;;;;;;;1016934;29;1136;-24
2021/12/02 03:50:46;;;;;;;;;;;;;;;;;;1012613;29;1292;-23
2021/12/02 03:51:17;;;;;;;;;;;;;;;;;;1008650;29;1114;-24
2021/12/02 03:51:48;;;;;;;;;;;;;;;;;;1008834;29;1325;-24
2021/12/02 03:52:19;;;;;;;;;;;;;;;;;;1004759;29;1365;-24
2021/12/02 03:52:49;;;;;;;;;;;;;;;;;;1004921;29;1103;-24
2021/12/02 03:53:20;;;;;;;;;;;;;;;;;;1005367;29;1014;-23
2021/12/02 03:53:51;;;;;;;;;;;;;;;;;;1004901;29;1319;-24
2021/12/02 03:54:22;;;;;;;;;;;;;;;;;;1001030;29;962;-24
2021/12/02 03:54:52;;;;;;;;;;;;;;;;;;1004785;29;1450;-24
2021/12/02 03:55:24;;;;;;;;;;;;;;;;;;1005114;29;1006;-24
2021/12/02 03:55:55;;;;;;;;;;;;;;;;;;1001833;29;931;-24
2021/12/02 03:56:26;;;;;;;;;;;;;;;;;;1008470;29;1398;-24
2021/12/02 03:56:56;;;;;;;;;;;;;;;;;;1008894;29;998;-24
2021/12/02 03:57:31;;;;;;;;;;;;;;;;;;1008310;29;1098;-23